weather.gov     
National Weather Service

Terminal Aerodrome Forecast
NWS Homepage
This page is being discontinued on March 12, 2014.
The same data is available at this site. Please update your bookmarks.
Thank you, and we apologize for the inconvenience.
Please send an email to SR-SRH.Webmaster@noaa.gov with any concerns.


Current Version
Previous Version:    01  02  03  04  05  06  07  08  09  10  11  12  13  14  15  16  17  18  19  20  21  22  23  24  25  26  27  28  29  30  
   31  
[Printable]
249
FTUS44 KLZK 301800 AAA
TAFADF
TAF AMD
KADF 301855Z 3019/3118 15005KT P6SM VCSH SCT015 SCT025
      TEMPO 3019/3023 3SM RA BR SCT005 BKN020
     FM310600 VRB02KT 4SM BR VCSH BKN015 OVC025
      TEMPO 3109/3113 2SM BR BKN010 OVC015
     FM311500 21006KT P6SM SCT015 BKN025
     FM311700 20008KT P6SM SCT025 BKN040
      AMD NOT SKED=


U.S. Dept. of Commerce
NOAA National Weather Service
1325 East West Highway
Silver Spring, MD 20910
E-mail: w-nws.webmaster@noaa.gov
Page last modified: May 16, 2007
NATIONAL WEATHER SERVICE: for Safety, for Work, for Fun - FOR LIFE